sensor_id;sensor_type;location;lat;lon;timestamp;temperature;humidity
9907;DHT22;4992;51.628;6.664;2022-09-13T00:00:36;16.40;99.90
9907;DHT22;4992;51.628;6.664;2022-09-13T00:03:01;16.40;99.90
9907;DHT22;4992;51.628;6.664;2022-09-13T00:05:27;16.40;99.90
9907;DHT22;4992;51.628;6.664;2022-09-13T00:07:53;16.40;99.90
9907;DHT22;4992;51.628;6.664;2022-09-13T00:10:19;16.40;99.90
9907;DHT22;4992;51.628;6.664;2022-09-13T00:12:47;16.40;99.90
9907;DHT22;4992;51.628;6.664;2022-09-13T00:15:12;16.40;99.90
9907;DHT22;4992;51.628;6.664;2022-09-13T00:17:38;16.40;99.90
9907;DHT22;4992;51.628;6.664;2022-09-13T00:20:04;16.40;99.90
9907;DHT22;4992;51.628;6.664;2022-09-13T00:22:30;16.30;99.90
9907;DHT22;4992;51.628;6.664;2022-09-13T00:24:55;16.30;99.90
9907;DHT22;4992;51.628;6.664;2022-09-13T00:27:21;16.30;99.90
9907;DHT22;4992;51.628;6.664;2022-09-13T00:29:46;16.30;99.90
9907;DHT22;4992;51.628;6.664;2022-09-13T00:32:12;16.20;99.90
9907;DHT22;4992;51.628;6.664;2022-09-13T00:34:37;16.20;99.90
9907;DHT22;4992;51.628;6.664;2022-09-13T00:37:03;16.20;99.90
9907;DHT22;4992;51.628;6.664;2022-09-13T00:39:29;16.20;99.90
9907;DHT22;4992;51.628;6.664;2022-09-13T00:41:54;16.20;99.90
9907;DHT22;4992;51.628;6.664;2022-09-13T00:47:13;16.20;99.90
9907;DHT22;4992;51.628;6.664;2022-09-13T00:49:40;16.10;99.90
9907;DHT22;4992;51.628;6.664;2022-09-13T00:52:09;16.10;99.90
9907;DHT22;4992;51.628;6.664;2022-09-13T00:54:46;16.10;99.90
9907;DHT22;4992;51.628;6.664;2022-09-13T00:57:15;16.10;99.90
9907;DHT22;4992;51.628;6.664;2022-09-13T01:02:34;16.20;99.90
9907;DHT22;4992;51.628;6.664;2022-09-13T01:05:01;16.10;99.90
9907;DHT22;4992;51.628;6.664;2022-09-13T01:07:26;16.10;99.90
9907;DHT22;4992;51.628;6.664;2022-09-13T01:09:52;16.20;99.90
9907;DHT22;4992;51.628;6.664;2022-09-13T01:12:41;16.20;99.90
9907;DHT22;4992;51.628;6.664;2022-09-13T01:15:09;16.10;99.90
9907;DHT22;4992;51.628;6.664;2022-09-13T01:17:35;16.10;99.90
9907;DHT22;4992;51.628;6.664;2022-09-13T01:20:02;16.20;99.90
9907;DHT22;4992;51.628;6.664;2022-09-13T01:22:36;16.10;99.90
9907;DHT22;4992;51.628;6.664;2022-09-13T01:28:29;16.10;99.90
9907;DHT22;4992;51.628;6.664;2022-09-13T01:31:24;16.20;99.90
9907;DHT22;4992;51.628;6.664;2022-09-13T01:34:02;16.20;99.90
9907;DHT22;4992;51.628;6.664;2022-09-13T01:39:06;16.10;99.90
9907;DHT22;4992;51.628;6.664;2022-09-13T01:41:46;16.20;99.90
9907;DHT22;4992;51.628;6.664;2022-09-13T01:47:22;16.20;99.90
9907;DHT22;4992;51.628;6.664;2022-09-13T01:50:18;16.20;99.90
9907;DHT22;4992;51.628;6.664;2022-09-13T01:53:06;16.30;99.90
9907;DHT22;4992;51.628;6.664;2022-09-13T01:55:50;16.30;99.90
9907;DHT22;4992;51.628;6.664;2022-09-13T02:03:48;16.40;99.90
9907;DHT22;4992;51.628;6.664;2022-09-13T02:06:23;16.40;99.90
9907;DHT22;4992;51.628;6.664;2022-09-13T02:08:55;16.40;99.90
9907;DHT22;4992;51.628;6.664;2022-09-13T02:11:22;16.40;99.90
9907;DHT22;4992;51.628;6.664;2022-09-13T02:16:37;16.50;99.90
9907;DHT22;4992;51.628;6.664;2022-09-13T02:19:10;16.50;99.90
9907;DHT22;4992;51.628;6.664;2022-09-13T02:21:42;16.50;99.90
9907;DHT22;4992;51.628;6.664;2022-09-13T02:24:28;16.50;99.90
9907;DHT22;4992;51.628;6.664;2022-09-13T02:27:00;16.50;99.90
9907;DHT22;4992;51.628;6.664;2022-09-13T02:29:27;16.50;99.90
9907;DHT22;4992;51.628;6.664;2022-09-13T02:32:03;16.50;99.90
9907;DHT22;4992;51.628;6.664;2022-09-13T02:34:46;16.50;99.90
9907;DHT22;4992;51.628;6.664;2022-09-13T02:37:12;16.50;99.90
9907;DHT22;4992;51.628;6.664;2022-09-13T02:39:44;16.50;99.90
9907;DHT22;4992;51.628;6.664;2022-09-13T02:42:17;16.60;99.90
9907;DHT22;4992;51.628;6.664;2022-09-13T02:44:45;16.60;99.90
9907;DHT22;4992;51.628;6.664;2022-09-13T02:54:01;16.60;99.90
9907;DHT22;4992;51.628;6.664;2022-09-13T02:56:34;16.60;99.90
9907;DHT22;4992;51.628;6.664;2022-09-13T02:59:10;16.70;99.90
9907;DHT22;4992;51.628;6.664;2022-09-13T03:01:38;16.70;99.90
9907;DHT22;4992;51.628;6.664;2022-09-13T03:04:05;16.70;99.90
9907;DHT22;4992;51.628;6.664;2022-09-13T03:06:31;16.70;99.90
9907;DHT22;4992;51.628;6.664;2022-09-13T03:08:59;16.70;99.90
9907;DHT22;4992;51.628;6.664;2022-09-13T03:15:02;16.70;99.90
9907;DHT22;4992;51.628;6.664;2022-09-13T03:20:15;16.70;99.90
9907;DHT22;4992;51.628;6.664;2022-09-13T03:28:43;16.70;99.90
9907;DHT22;4992;51.628;6.664;2022-09-13T03:31:29;16.70;99.90
9907;DHT22;4992;51.628;6.664;2022-09-13T03:34:02;16.70;99.90
9907;DHT22;4992;51.628;6.664;2022-09-13T03:36:41;16.70;99.90
9907;DHT22;4992;51.628;6.664;2022-09-13T03:39:11;16.70;99.90
9907;DHT22;4992;51.628;6.664;2022-09-13T03:41:44;16.80;99.90
9907;DHT22;4992;51.628;6.664;2022-09-13T03:44:13;16.70;99.90
9907;DHT22;4992;51.628;6.664;2022-09-13T03:46:43;16.80;99.90
9907;DHT22;4992;51.628;6.664;2022-09-13T03:49:13;16.70;99.90
9907;DHT22;4992;51.628;6.664;2022-09-13T03:51:39;16.70;99.90
9907;DHT22;4992;51.628;6.664;2022-09-13T03:54:15;16.70;99.90
9907;DHT22;4992;51.628;6.664;2022-09-13T03:56:42;16.70;99.90
9907;DHT22;4992;51.628;6.664;2022-09-13T03:59:08;16.70;99.90
9907;DHT22;4992;51.628;6.664;2022-09-13T04:01:33;16.70;99.90
9907;DHT22;4992;51.628;6.664;2022-09-13T04:03:59;16.70;99.90
9907;DHT22;4992;51.628;6.664;2022-09-13T04:06:25;16.70;99.90
9907;DHT22;4992;51.628;6.664;2022-09-13T04:08:50;16.80;99.90
9907;DHT22;4992;51.628;6.664;2022-09-13T04:11:16;16.70;99.90
9907;DHT22;4992;51.628;6.664;2022-09-13T04:13:41;16.70;99.90
9907;DHT22;4992;51.628;6.664;2022-09-13T04:16:07;16.70;99.90
9907;DHT22;4992;51.628;6.664;2022-09-13T04:18:33;16.80;99.90
9907;DHT22;4992;51.628;6.664;2022-09-13T04:21:00;16.80;99.90
9907;DHT22;4992;51.628;6.664;2022-09-13T04:23:27;16.70;99.90
9907;DHT22;4992;51.628;6.664;2022-09-13T04:25:53;16.70;99.90
9907;DHT22;4992;51.628;6.664;2022-09-13T04:28:20;16.70;99.90
9907;DHT22;4992;51.628;6.664;2022-09-13T04:30:47;16.70;99.90
9907;DHT22;4992;51.628;6.664;2022-09-13T04:33:13;16.70;99.90
9907;DHT22;4992;51.628;6.664;2022-09-13T04:35:38;16.70;99.90
9907;DHT22;4992;51.628;6.664;2022-09-13T04:38:06;16.60;99.90
9907;DHT22;4992;51.628;6.664;2022-09-13T04:40:31;16.60;99.90
9907;DHT22;4992;51.628;6.664;2022-09-13T04:42:59;16.60;99.90
9907;DHT22;4992;51.628;6.664;2022-09-13T04:45:25;16.60;99.90
9907;DHT22;4992;51.628;6.664;2022-09-13T04:47:51;16.60;99.90
9907;DHT22;4992;51.628;6.664;2022-09-13T04:50:18;16.70;99.90
9907;DHT22;4992;51.628;6.664;2022-09-13T04:52:45;16.70;99.90
9907;DHT22;4992;51.628;6.664;2022-09-13T04:55:10;16.70;99.90
9907;DHT22;4992;51.628;6.664;2022-09-13T04:57:36;16.70;99.90
9907;DHT22;4992;51.628;6.664;2022-09-13T05:00:02;16.60;99.90
9907;DHT22;4992;51.628;6.664;2022-09-13T05:02:28;16.60;99.90
9907;DHT22;4992;51.628;6.664;2022-09-13T05:04:53;16.60;99.90
9907;DHT22;4992;51.628;6.664;2022-09-13T05:07:19;16.60;99.90
9907;DHT22;4992;51.628;6.664;2022-09-13T05:09:45;16.60;99.90
9907;DHT22;4992;51.628;6.664;2022-09-13T05:12:10;16.60;99.90
9907;DHT22;4992;51.628;6.664;2022-09-13T05:14:36;16.60;99.90
9907;DHT22;4992;51.628;6.664;2022-09-13T05:17:01;16.60;99.90
9907;DHT22;4992;51.628;6.664;2022-09-13T05:19:27;16.70;99.90
9907;DHT22;4992;51.628;6.664;2022-09-13T05:21:52;16.70;99.90
9907;DHT22;4992;51.628;6.664;2022-09-13T05:24:18;16.70;99.90
9907;DHT22;4992;51.628;6.664;2022-09-13T05:26:43;16.70;99.90
9907;DHT22;4992;51.628;6.664;2022-09-13T05:29:09;16.70;99.90
9907;DHT22;4992;51.628;6.664;2022-09-13T05:31:37;16.70;99.90
9907;DHT22;4992;51.628;6.664;2022-09-13T05:34:06;16.70;99.90
9907;DHT22;4992;51.628;6.664;2022-09-13T05:36:32;16.70;99.90
9907;DHT22;4992;51.628;6.664;2022-09-13T05:38:58;16.80;99.90
9907;DHT22;4992;51.628;6.664;2022-09-13T05:41:25;16.80;99.90
9907;DHT22;4992;51.628;6.664;2022-09-13T05:43:50;16.80;99.90
9907;DHT22;4992;51.628;6.664;2022-09-13T05:46:18;16.80;99.90
9907;DHT22;4992;51.628;6.664;2022-09-13T05:48:44;16.80;99.90
9907;DHT22;4992;51.628;6.664;2022-09-13T05:53:37;16.90;99.90
9907;DHT22;4992;51.628;6.664;2022-09-13T05:56:08;16.90;99.90
9907;DHT22;4992;51.628;6.664;2022-09-13T05:58:37;16.90;99.90
9907;DHT22;4992;51.628;6.664;2022-09-13T06:01:03;16.90;99.90
9907;DHT22;4992;51.628;6.664;2022-09-13T06:03:28;17.00;99.90
9907;DHT22;4992;51.628;6.664;2022-09-13T06:05:55;17.00;99.90
9907;DHT22;4992;51.628;6.664;2022-09-13T06:08:22;17.00;99.90
9907;DHT22;4992;51.628;6.664;2022-09-13T06:11:04;17.00;99.90
9907;DHT22;4992;51.628;6.664;2022-09-13T06:13:31;17.10;99.90
9907;DHT22;4992;51.628;6.664;2022-09-13T06:15:58;17.10;99.90
9907;DHT22;4992;51.628;6.664;2022-09-13T06:18:24;17.00;99.90
9907;DHT22;4992;51.628;6.664;2022-09-13T06:20:56;17.10;99.90
9907;DHT22;4992;51.628;6.664;2022-09-13T06:23:22;17.10;99.90
9907;DHT22;4992;51.628;6.664;2022-09-13T06:25:48;17.10;99.90
9907;DHT22;4992;51.628;6.664;2022-09-13T06:28:14;17.10;99.90
9907;DHT22;4992;51.628;6.664;2022-09-13T06:30:39;17.20;99.90
9907;DHT22;4992;51.628;6.664;2022-09-13T06:33:05;17.20;99.90
9907;DHT22;4992;51.628;6.664;2022-09-13T06:35:30;17.30;99.90
9907;DHT22;4992;51.628;6.664;2022-09-13T06:37:56;17.30;99.90
9907;DHT22;4992;51.628;6.664;2022-09-13T06:40:23;17.40;99.90
9907;DHT22;4992;51.628;6.664;2022-09-13T06:42:49;17.40;99.90
9907;DHT22;4992;51.628;6.664;2022-09-13T06:45:15;17.50;99.90
9907;DHT22;4992;51.628;6.664;2022-09-13T06:47:40;17.60;99.90
9907;DHT22;4992;51.628;6.664;2022-09-13T06:50:06;17.70;99.90
9907;DHT22;4992;51.628;6.664;2022-09-13T06:52:32;17.80;99.90
9907;DHT22;4992;51.628;6.664;2022-09-13T06:54:58;17.90;99.90
9907;DHT22;4992;51.628;6.664;2022-09-13T06:57:23;18.00;99.90
9907;DHT22;4992;51.628;6.664;2022-09-13T06:59:49;18.10;99.90
9907;DHT22;4992;51.628;6.664;2022-09-13T07:02:15;18.10;99.90
9907;DHT22;4992;51.628;6.664;2022-09-13T07:04:40;18.20;99.90
9907;DHT22;4992;51.628;6.664;2022-09-13T07:07:06;18.30;99.90
9907;DHT22;4992;51.628;6.664;2022-09-13T07:09:31;18.40;99.90
9907;DHT22;4992;51.628;6.664;2022-09-13T07:11:58;18.40;99.90
9907;DHT22;4992;51.628;6.664;2022-09-13T07:14:26;18.50;99.90
9907;DHT22;4992;51.628;6.664;2022-09-13T07:16:52;18.60;99.90
9907;DHT22;4992;51.628;6.664;2022-09-13T07:19:21;18.60;99.90
9907;DHT22;4992;51.628;6.664;2022-09-13T07:21:47;18.70;99.90
9907;DHT22;4992;51.628;6.664;2022-09-13T07:24:15;18.80;99.90
9907;DHT22;4992;51.628;6.664;2022-09-13T07:26:41;18.90;99.90
9907;DHT22;4992;51.628;6.664;2022-09-13T07:29:09;18.90;99.90
9907;DHT22;4992;51.628;6.664;2022-09-13T07:31:37;19.00;99.90
9907;DHT22;4992;51.628;6.664;2022-09-13T07:34:17;19.10;99.90
9907;DHT22;4992;51.628;6.664;2022-09-13T07:36:44;19.20;99.90
9907;DHT22;4992;51.628;6.664;2022-09-13T07:39:12;19.20;99.90
9907;DHT22;4992;51.628;6.664;2022-09-13T07:41:38;19.30;99.90
9907;DHT22;4992;51.628;6.664;2022-09-13T07:44:03;19.40;99.90
9907;DHT22;4992;51.628;6.664;2022-09-13T07:46:31;19.50;99.90
9907;DHT22;4992;51.628;6.664;2022-09-13T07:48:59;19.60;99.90
9907;DHT22;4992;51.628;6.664;2022-09-13T07:51:28;19.70;99.90
9907;DHT22;4992;51.628;6.664;2022-09-13T07:53:56;19.70;99.90
9907;DHT22;4992;51.628;6.664;2022-09-13T07:56:24;19.90;99.90
9907;DHT22;4992;51.628;6.664;2022-09-13T07:58:50;20.00;99.90
9907;DHT22;4992;51.628;6.664;2022-09-13T08:01:21;20.10;99.90
9907;DHT22;4992;51.628;6.664;2022-09-13T08:03:56;20.30;99.90
9907;DHT22;4992;51.628;6.664;2022-09-13T08:06:23;20.40;99.90
9907;DHT22;4992;51.628;6.664;2022-09-13T08:08:49;20.60;99.90
9907;DHT22;4992;51.628;6.664;2022-09-13T08:11:20;20.60;99.90
9907;DHT22;4992;51.628;6.664;2022-09-13T08:13:46;20.80;99.90
9907;DHT22;4992;51.628;6.664;2022-09-13T08:16:13;20.80;99.90
9907;DHT22;4992;51.628;6.664;2022-09-13T08:18:47;20.90;99.90
9907;DHT22;4992;51.628;6.664;2022-09-13T08:21:13;21.00;99.90
9907;DHT22;4992;51.628;6.664;2022-09-13T08:23:39;21.10;99.90
9907;DHT22;4992;51.628;6.664;2022-09-13T08:26:05;21.20;99.90
9907;DHT22;4992;51.628;6.664;2022-09-13T08:28:36;21.20;99.90
9907;DHT22;4992;51.628;6.664;2022-09-13T08:33:29;21.40;99.90
9907;DHT22;4992;51.628;6.664;2022-09-13T08:35:55;21.50;99.90
9907;DHT22;4992;51.628;6.664;2022-09-13T08:38:22;21.50;99.90
9907;DHT22;4992;51.628;6.664;2022-09-13T08:40:52;21.60;99.90
9907;DHT22;4992;51.628;6.664;2022-09-13T08:43:47;21.70;99.90
9907;DHT22;4992;51.628;6.664;2022-09-13T08:46:30;21.80;99.90
9907;DHT22;4992;51.628;6.664;2022-09-13T08:49:07;21.80;99.90
9907;DHT22;4992;51.628;6.664;2022-09-13T08:51:48;22.00;99.90
9907;DHT22;4992;51.628;6.664;2022-09-13T08:54:16;22.10;99.90
9907;DHT22;4992;51.628;6.664;2022-09-13T08:57:10;22.20;99.90
9907;DHT22;4992;51.628;6.664;2022-09-13T09:05:18;22.20;99.90
9907;DHT22;4992;51.628;6.664;2022-09-13T09:07:48;22.30;99.90
9907;DHT22;4992;51.628;6.664;2022-09-13T09:10:31;22.30;99.90
9907;DHT22;4992;51.628;6.664;2022-09-13T09:13:08;22.40;99.90
9907;DHT22;4992;51.628;6.664;2022-09-13T09:15:41;22.50;99.90
9907;DHT22;4992;51.628;6.664;2022-09-13T09:18:19;22.50;99.90
9907;DHT22;4992;51.628;6.664;2022-09-13T09:20:48;22.60;99.90
9907;DHT22;4992;51.628;6.664;2022-09-13T09:23:24;22.70;99.90
9907;DHT22;4992;51.628;6.664;2022-09-13T09:25:55;22.90;99.90
9907;DHT22;4992;51.628;6.664;2022-09-13T09:28:20;22.90;99.90
9907;DHT22;4992;51.628;6.664;2022-09-13T09:33:51;23.10;99.90
9907;DHT22;4992;51.628;6.664;2022-09-13T09:39:03;23.20;99.90
9907;DHT22;4992;51.628;6.664;2022-09-13T09:41:32;23.30;99.90
9907;DHT22;4992;51.628;6.664;2022-09-13T09:47:13;23.50;99.90
9907;DHT22;4992;51.628;6.664;2022-09-13T09:49:44;23.50;99.90
9907;DHT22;4992;51.628;6.664;2022-09-13T09:52:57;23.40;99.90
9907;DHT22;4992;51.628;6.664;2022-09-13T09:55:30;23.30;99.90
9907;DHT22;4992;51.628;6.664;2022-09-13T09:58:00;23.40;99.90
9907;DHT22;4992;51.628;6.664;2022-09-13T10:00:34;23.50;99.90
9907;DHT22;4992;51.628;6.664;2022-09-13T10:03:06;23.50;99.90
9907;DHT22;4992;51.628;6.664;2022-09-13T10:05:34;23.60;99.90
9907;DHT22;4992;51.628;6.664;2022-09-13T10:08:02;23.70;99.90
9907;DHT22;4992;51.628;6.664;2022-09-13T10:10:41;23.80;99.90
9907;DHT22;4992;51.628;6.664;2022-09-13T10:13:15;24.00;99.90
9907;DHT22;4992;51.628;6.664;2022-09-13T10:16:22;24.10;99.90
9907;DHT22;4992;51.628;6.664;2022-09-13T10:18:50;24.40;99.90
9907;DHT22;4992;51.628;6.664;2022-09-13T10:23:45;24.60;99.90
9907;DHT22;4992;51.628;6.664;2022-09-13T10:26:22;24.70;99.90
9907;DHT22;4992;51.628;6.664;2022-09-13T10:28:59;24.90;99.90
9907;DHT22;4992;51.628;6.664;2022-09-13T10:31:30;25.20;99.90
9907;DHT22;4992;51.628;6.664;2022-09-13T10:34:27;25.50;99.90
9907;DHT22;4992;51.628;6.664;2022-09-13T10:37:13;25.80;99.90
9907;DHT22;4992;51.628;6.664;2022-09-13T10:42:25;26.30;99.90
9907;DHT22;4992;51.628;6.664;2022-09-13T10:45:02;26.60;99.90
9907;DHT22;4992;51.628;6.664;2022-09-13T10:48:05;26.90;99.90
9907;DHT22;4992;51.628;6.664;2022-09-13T10:50:26;26.90;99.90
9907;DHT22;4992;51.628;6.664;2022-09-13T10:52:59;27.10;99.90
9907;DHT22;4992;51.628;6.664;2022-09-13T10:55:26;27.40;99.90
9907;DHT22;4992;51.628;6.664;2022-09-13T11:00:34;28.40;99.90
9907;DHT22;4992;51.628;6.664;2022-09-13T11:03:18;28.80;99.90
9907;DHT22;4992;51.628;6.664;2022-09-13T11:06:01;29.10;99.90
9907;DHT22;4992;51.628;6.664;2022-09-13T11:19:16;30.40;99.90
9907;DHT22;4992;51.628;6.664;2022-09-13T11:38:01;32.40;99.90
9907;DHT22;4992;51.628;6.664;2022-09-13T11:40:31;32.70;99.90
9907;DHT22;4992;51.628;6.664;2022-09-13T11:53:50;32.20;99.90
9907;DHT22;4992;51.628;6.664;2022-09-13T11:56:20;32.20;99.90
9907;DHT22;4992;51.628;6.664;2022-09-13T11:58:55;32.30;99.90
9907;DHT22;4992;51.628;6.664;2022-09-13T12:01:28;32.20;99.90
9907;DHT22;4992;51.628;6.664;2022-09-13T12:04:04;32.30;99.90
9907;DHT22;4992;51.628;6.664;2022-09-13T12:06:34;32.00;99.90
9907;DHT22;4992;51.628;6.664;2022-09-13T12:09:11;31.70;99.90
9907;DHT22;4992;51.628;6.664;2022-09-13T12:11:43;31.50;99.90
9907;DHT22;4992;51.628;6.664;2022-09-13T12:14:20;31.50;99.90
9907;DHT22;4992;51.628;6.664;2022-09-13T12:16:49;31.40;99.90
9907;DHT22;4992;51.628;6.664;2022-09-13T12:19:22;31.30;99.90
9907;DHT22;4992;51.628;6.664;2022-09-13T12:21:49;31.20;99.90
9907;DHT22;4992;51.628;6.664;2022-09-13T12:26:58;31.10;99.90
9907;DHT22;4992;51.628;6.664;2022-09-13T12:29:29;31.00;99.90
9907;DHT22;4992;51.628;6.664;2022-09-13T12:32:01;31.10;99.90
9907;DHT22;4992;51.628;6.664;2022-09-13T12:35:09;31.20;99.90
9907;DHT22;4992;51.628;6.664;2022-09-13T12:37:47;30.80;99.90
9907;DHT22;4992;51.628;6.664;2022-09-13T12:43:28;29.50;99.90
9907;DHT22;4992;51.628;6.664;2022-09-13T12:51:34;29.20;99.90
9907;DHT22;4992;51.628;6.664;2022-09-13T13:00:09;31.30;99.90
9907;DHT22;4992;51.628;6.664;2022-09-13T13:02:40;31.80;99.90
9907;DHT22;4992;51.628;6.664;2022-09-13T13:05:32;32.20;99.90
9907;DHT22;4992;51.628;6.664;2022-09-13T13:08:04;32.10;99.90
9907;DHT22;4992;51.628;6.664;2022-09-13T13:10:33;31.70;99.90
9907;DHT22;4992;51.628;6.664;2022-09-13T13:13:23;31.20;99.90
9907;DHT22;4992;51.628;6.664;2022-09-13T13:15:56;30.20;99.90
9907;DHT22;4992;51.628;6.664;2022-09-13T13:18:30;29.60;99.90
9907;DHT22;4992;51.628;6.664;2022-09-13T13:31:21;27.60;99.90
9907;DHT22;4992;51.628;6.664;2022-09-13T13:39:11;28.80;99.90
9907;DHT22;4992;51.628;6.664;2022-09-13T13:41:43;29.80;99.90
9907;DHT22;4992;51.628;6.664;2022-09-13T13:55:01;30.50;99.90
9907;DHT22;4992;51.628;6.664;2022-09-13T13:57:35;30.10;99.90
9907;DHT22;4992;51.628;6.664;2022-09-13T14:00:17;29.80;99.90
9907;DHT22;4992;51.628;6.664;2022-09-13T14:16:43;29.10;99.90
9907;DHT22;4992;51.628;6.664;2022-09-13T14:19:20;30.10;99.90
9907;DHT22;4992;51.628;6.664;2022-09-13T14:22:15;30.80;99.90
9907;DHT22;4992;51.628;6.664;2022-09-13T14:24:44;30.90;99.90
9907;DHT22;4992;51.628;6.664;2022-09-13T14:27:33;30.70;99.90
9907;DHT22;4992;51.628;6.664;2022-09-13T14:30:13;30.10;99.90
9907;DHT22;4992;51.628;6.664;2022-09-13T14:32:45;29.80;99.90
9907;DHT22;4992;51.628;6.664;2022-09-13T14:37:46;28.70;99.90
9907;DHT22;4992;51.628;6.664;2022-09-13T14:40:20;28.30;99.90
9907;DHT22;4992;51.628;6.664;2022-09-13T14:42:48;28.00;99.90
9907;DHT22;4992;51.628;6.664;2022-09-13T14:45:16;27.60;99.90
9907;DHT22;4992;51.628;6.664;2022-09-13T14:47:47;27.20;99.90
9907;DHT22;4992;51.628;6.664;2022-09-13T14:50:18;26.90;99.90
9907;DHT22;4992;51.628;6.664;2022-09-13T14:55:25;26.70;99.90
9907;DHT22;4992;51.628;6.664;2022-09-13T14:57:59;26.50;99.90
9907;DHT22;4992;51.628;6.664;2022-09-13T15:00:30;26.30;99.90
9907;DHT22;4992;51.628;6.664;2022-09-13T15:03:13;26.10;99.90
9907;DHT22;4992;51.628;6.664;2022-09-13T15:05:40;25.90;99.90
9907;DHT22;4992;51.628;6.664;2022-09-13T15:11:13;25.90;99.90
9907;DHT22;4992;51.628;6.664;2022-09-13T15:13:39;25.90;99.90
9907;DHT22;4992;51.628;6.664;2022-09-13T15:16:28;26.00;99.90
9907;DHT22;4992;51.628;6.664;2022-09-13T15:19:16;26.10;99.90
9907;DHT22;4992;51.628;6.664;2022-09-13T15:21:50;26.20;99.90
9907;DHT22;4992;51.628;6.664;2022-09-13T15:24:30;26.20;99.90
9907;DHT22;4992;51.628;6.664;2022-09-13T15:27:15;26.10;99.90
9907;DHT22;4992;51.628;6.664;2022-09-13T15:29:51;26.00;99.90
9907;DHT22;4992;51.628;6.664;2022-09-13T15:32:40;25.80;99.90
9907;DHT22;4992;51.628;6.664;2022-09-13T15:35:27;25.60;99.90
9907;DHT22;4992;51.628;6.664;2022-09-13T15:38:18;25.50;99.90
9907;DHT22;4992;51.628;6.664;2022-09-13T15:40:52;25.40;99.90
9907;DHT22;4992;51.628;6.664;2022-09-13T15:43:22;25.40;99.90
9907;DHT22;4992;51.628;6.664;2022-09-13T15:45:47;25.30;99.90
9907;DHT22;4992;51.628;6.664;2022-09-13T15:48:27;25.20;99.90
9907;DHT22;4992;51.628;6.664;2022-09-13T15:51:08;25.10;99.90
9907;DHT22;4992;51.628;6.664;2022-09-13T15:53:35;24.90;99.90
9907;DHT22;4992;51.628;6.664;2022-09-13T15:56:02;24.90;99.90
9907;DHT22;4992;51.628;6.664;2022-09-13T15:58:29;24.70;99.90
9907;DHT22;4992;51.628;6.664;2022-09-13T16:00:54;24.60;99.90
9907;DHT22;4992;51.628;6.664;2022-09-13T16:03:20;24.50;99.90
9907;DHT22;4992;51.628;6.664;2022-09-13T16:05:45;24.40;99.90
9907;DHT22;4992;51.628;6.664;2022-09-13T16:08:11;24.30;99.90
9907;DHT22;4992;51.628;6.664;2022-09-13T16:10:37;24.30;99.90
9907;DHT22;4992;51.628;6.664;2022-09-13T16:13:03;24.20;99.90
9907;DHT22;4992;51.628;6.664;2022-09-13T16:15:28;24.20;99.90
9907;DHT22;4992;51.628;6.664;2022-09-13T16:17:54;24.10;99.90
9907;DHT22;4992;51.628;6.664;2022-09-13T16:20:20;24.10;99.90
9907;DHT22;4992;51.628;6.664;2022-09-13T16:22:46;24.00;99.90
9907;DHT22;4992;51.628;6.664;2022-09-13T16:25:12;23.90;99.90
9907;DHT22;4992;51.628;6.664;2022-09-13T16:27:39;23.90;99.90
9907;DHT22;4992;51.628;6.664;2022-09-13T16:30:06;23.80;99.90
9907;DHT22;4992;51.628;6.664;2022-09-13T16:32:31;23.80;99.90
9907;DHT22;4992;51.628;6.664;2022-09-13T16:34:57;23.70;99.90
9907;DHT22;4992;51.628;6.664;2022-09-13T16:37:23;23.70;99.90
9907;DHT22;4992;51.628;6.664;2022-09-13T16:39:49;23.60;99.90
9907;DHT22;4992;51.628;6.664;2022-09-13T16:42:15;23.60;99.90
9907;DHT22;4992;51.628;6.664;2022-09-13T16:44:42;23.50;99.90
9907;DHT22;4992;51.628;6.664;2022-09-13T16:47:08;23.50;99.90
9907;DHT22;4992;51.628;6.664;2022-09-13T16:49:34;23.50;99.90
9907;DHT22;4992;51.628;6.664;2022-09-13T16:52:00;23.40;99.90
9907;DHT22;4992;51.628;6.664;2022-09-13T16:54:29;23.30;99.90
9907;DHT22;4992;51.628;6.664;2022-09-13T16:56:55;23.30;99.90
9907;DHT22;4992;51.628;6.664;2022-09-13T16:59:22;23.20;99.90
9907;DHT22;4992;51.628;6.664;2022-09-13T17:01:47;23.10;99.90
9907;DHT22;4992;51.628;6.664;2022-09-13T17:04:13;23.10;99.90
9907;DHT22;4992;51.628;6.664;2022-09-13T17:06:38;23.00;99.90
9907;DHT22;4992;51.628;6.664;2022-09-13T17:09:06;23.00;99.90
9907;DHT22;4992;51.628;6.664;2022-09-13T17:11:35;22.90;99.90
9907;DHT22;4992;51.628;6.664;2022-09-13T17:14:03;22.90;99.90
9907;DHT22;4992;51.628;6.664;2022-09-13T17:19:00;22.80;99.90
9907;DHT22;4992;51.628;6.664;2022-09-13T17:21:27;22.80;99.90
9907;DHT22;4992;51.628;6.664;2022-09-13T17:23:53;22.80;99.90
9907;DHT22;4992;51.628;6.664;2022-09-13T17:26:19;22.70;99.90
9907;DHT22;4992;51.628;6.664;2022-09-13T17:28:45;22.60;99.90
9907;DHT22;4992;51.628;6.664;2022-09-13T17:31:10;22.60;99.90
9907;DHT22;4992;51.628;6.664;2022-09-13T17:33:36;22.50;99.90
9907;DHT22;4992;51.628;6.664;2022-09-13T17:36:04;22.50;99.90
9907;DHT22;4992;51.628;6.664;2022-09-13T17:38:31;22.50;99.90
9907;DHT22;4992;51.628;6.664;2022-09-13T17:41:02;22.40;99.90
9907;DHT22;4992;51.628;6.664;2022-09-13T17:43:36;22.30;99.90
9907;DHT22;4992;51.628;6.664;2022-09-13T17:46:06;22.30;99.90
9907;DHT22;4992;51.628;6.664;2022-09-13T17:48:32;22.20;99.90
9907;DHT22;4992;51.628;6.664;2022-09-13T17:51:02;22.20;99.90
9907;DHT22;4992;51.628;6.664;2022-09-13T17:53:28;22.10;99.90
9907;DHT22;4992;51.628;6.664;2022-09-13T17:55:53;22.00;99.90
9907;DHT22;4992;51.628;6.664;2022-09-13T17:58:19;21.90;99.90
9907;DHT22;4992;51.628;6.664;2022-09-13T18:00:45;21.90;99.90
9907;DHT22;4992;51.628;6.664;2022-09-13T18:03:10;21.80;99.90
9907;DHT22;4992;51.628;6.664;2022-09-13T18:05:36;21.80;99.90
9907;DHT22;4992;51.628;6.664;2022-09-13T18:08:02;21.70;99.90
9907;DHT22;4992;51.628;6.664;2022-09-13T18:10:27;21.60;99.90
9907;DHT22;4992;51.628;6.664;2022-09-13T18:12:53;21.60;99.90
9907;DHT22;4992;51.628;6.664;2022-09-13T18:15:18;21.60;99.90
9907;DHT22;4992;51.628;6.664;2022-09-13T18:17:44;21.50;99.90
9907;DHT22;4992;51.628;6.664;2022-09-13T18:20:10;21.50;99.90
9907;DHT22;4992;51.628;6.664;2022-09-13T18:22:35;21.40;99.90
9907;DHT22;4992;51.628;6.664;2022-09-13T18:25:01;21.30;99.90
9907;DHT22;4992;51.628;6.664;2022-09-13T18:27:26;21.30;99.90
9907;DHT22;4992;51.628;6.664;2022-09-13T18:29:52;21.20;99.90
9907;DHT22;4992;51.628;6.664;2022-09-13T18:32:17;21.20;99.90
9907;DHT22;4992;51.628;6.664;2022-09-13T18:34:43;21.10;99.90
9907;DHT22;4992;51.628;6.664;2022-09-13T18:37:08;21.00;99.90
9907;DHT22;4992;51.628;6.664;2022-09-13T18:39:34;21.00;99.90
9907;DHT22;4992;51.628;6.664;2022-09-13T18:42:00;20.90;99.90
9907;DHT22;4992;51.628;6.664;2022-09-13T18:44:26;20.90;99.90
9907;DHT22;4992;51.628;6.664;2022-09-13T18:46:55;20.80;99.90
9907;DHT22;4992;51.628;6.664;2022-09-13T18:49:20;20.70;99.90
9907;DHT22;4992;51.628;6.664;2022-09-13T18:51:47;20.70;99.90
9907;DHT22;4992;51.628;6.664;2022-09-13T18:54:16;20.70;99.90
9907;DHT22;4992;51.628;6.664;2022-09-13T18:56:43;20.60;99.90
9907;DHT22;4992;51.628;6.664;2022-09-13T18:59:09;20.50;99.90
9907;DHT22;4992;51.628;6.664;2022-09-13T19:01:37;20.50;99.90
9907;DHT22;4992;51.628;6.664;2022-09-13T19:04:18;20.50;99.90
9907;DHT22;4992;51.628;6.664;2022-09-13T19:06:46;20.40;99.90
9907;DHT22;4992;51.628;6.664;2022-09-13T19:09:13;20.30;99.90
9907;DHT22;4992;51.628;6.664;2022-09-13T19:11:41;20.20;99.90
9907;DHT22;4992;51.628;6.664;2022-09-13T19:14:08;20.10;99.90
9907;DHT22;4992;51.628;6.664;2022-09-13T19:16:34;20.10;99.90